createdAt,value
2018-11-27T00:00:50.921Z,25.27
2018-11-27T00:03:22.498Z,24.80
2018-11-27T00:05:53.471Z,20.63
2018-11-27T00:08:23.346Z,23.77
2018-11-27T00:10:54.782Z,22.63
2018-11-27T00:13:26.677Z,23.67
2018-11-27T00:15:56.521Z,23.47
2018-11-27T00:18:27.974Z,21.77
2018-11-27T00:21:20.518Z,20.90
2018-11-27T00:23:54.741Z,22.30
2018-11-27T00:26:32.661Z,22.00
2018-11-27T00:29:06.312Z,22.47
2018-11-27T00:31:38.707Z,18.63
2018-11-27T00:34:07.042Z,21.47
2018-11-27T00:36:35.300Z,20.60
2018-11-27T00:39:04.747Z,21.33
2018-11-27T00:41:32.975Z,20.93
2018-11-27T00:44:01.208Z,20.60
2018-11-27T00:46:29.786Z,18.13
2018-11-27T00:48:58.034Z,19.47
2018-11-27T00:51:26.197Z,19.47
2018-11-27T00:53:54.459Z,19.87
2018-11-27T00:56:22.701Z,16.47
2018-11-27T00:58:50.963Z,19.57
2018-11-27T01:01:19.120Z,17.37
2018-11-27T01:03:47.390Z,16.63
2018-11-27T01:06:15.598Z,18.50
2018-11-27T01:08:43.856Z,17.93
2018-11-27T01:11:12.117Z,17.37
2018-11-27T01:13:40.335Z,18.90
2018-11-27T01:16:08.576Z,19.80
2018-11-27T01:18:36.849Z,19.63
2018-11-27T01:21:05.397Z,18.10
2018-11-27T01:23:33.637Z,16.37
2018-11-27T01:26:01.988Z,17.13
2018-11-27T01:28:30.257Z,17.03
2018-11-27T01:30:59.805Z,17.07
2018-11-27T01:33:28.129Z,16.33
2018-11-27T01:35:56.476Z,15.83
2018-11-27T01:38:24.751Z,19.93
2018-11-27T01:40:53.029Z,17.93
2018-11-27T01:43:21.317Z,18.53
2018-11-27T01:45:49.635Z,18.40
2018-11-27T01:48:17.873Z,17.87
2018-11-27T01:50:46.058Z,19.53
2018-11-27T01:53:14.267Z,16.37
2018-11-27T01:55:42.640Z,19.63
2018-11-27T01:58:10.873Z,19.80
2018-11-27T02:00:39.052Z,19.80
2018-11-27T02:03:07.229Z,19.67
2018-11-27T02:05:35.437Z,19.87
2018-11-27T02:08:03.670Z,17.10
2018-11-27T02:10:31.920Z,19.07
2018-11-27T02:13:01.400Z,20.70
2018-11-27T02:15:29.029Z,20.17
2018-11-27T02:17:57.279Z,21.37
2018-11-27T02:20:25.517Z,19.30
2018-11-27T02:22:54.114Z,22.57
2018-11-27T02:25:22.749Z,22.90
2018-11-27T02:27:51.414Z,23.43
2018-11-27T02:30:20.566Z,23.50
2018-11-27T02:32:48.742Z,23.50
2018-11-27T02:35:17.217Z,26.73
2018-11-27T02:37:45.560Z,24.40
2018-11-27T02:40:14.415Z,22.13
2018-11-27T02:42:42.652Z,25.07
2018-11-27T02:45:13.242Z,26.27
2018-11-27T02:47:41.640Z,26.23
2018-11-27T02:50:10.380Z,24.20
2018-11-27T02:52:38.596Z,27.27
2018-11-27T02:55:08.172Z,26.03
2018-11-27T02:57:36.590Z,25.87
2018-11-27T03:00:05.167Z,26.33
2018-11-27T03:02:33.454Z,25.53
2018-11-27T03:05:01.735Z,25.60
2018-11-27T03:07:30.024Z,27.23
2018-11-27T03:09:58.302Z,31.80
2018-11-27T03:12:26.571Z,28.33
2018-11-27T03:14:54.793Z,26.70
2018-11-27T03:17:22.959Z,26.07
2018-11-27T03:19:51.295Z,28.70
2018-11-27T03:22:19.862Z,24.10
2018-11-27T03:24:48.158Z,25.40
2018-11-27T03:27:16.438Z,30.63
2018-11-27T03:29:44.612Z,28.60
2018-11-27T03:32:12.792Z,27.23
2018-11-27T03:34:40.917Z,24.80
2018-11-27T03:37:09.674Z,27.60
2018-11-27T03:39:37.825Z,27.97
2018-11-27T03:42:06.121Z,25.60
2018-11-27T03:44:34.307Z,25.13
2018-11-27T03:47:02.513Z,28.80
2018-11-27T03:49:30.803Z,26.27
2018-11-27T03:51:59.063Z,27.97
2018-11-27T03:54:27.361Z,26.57
2018-11-27T03:56:55.583Z,26.70
2018-11-27T03:59:23.770Z,27.97
2018-11-27T04:01:51.948Z,27.57
2018-11-27T04:04:20.099Z,30.57
2018-11-27T04:06:48.262Z,27.63
2018-11-27T04:09:16.427Z,28.30
2018-11-27T04:11:44.592Z,31.97
2018-11-27T04:14:12.744Z,32.93
2018-11-27T04:16:40.965Z,25.73
2018-11-27T04:19:09.045Z,31.53
2018-11-27T04:21:37.142Z,30.73
2018-11-27T04:24:05.775Z,27.17
2018-11-27T04:26:33.781Z,32.73
2018-11-27T04:29:01.870Z,29.50
2018-11-27T04:31:30.374Z,31.73
2018-11-27T04:33:58.444Z,30.10
2018-11-27T04:36:26.653Z,30.70
2018-11-27T04:38:54.695Z,30.40
2018-11-27T04:41:22.749Z,32.80
2018-11-27T04:43:50.790Z,30.73
2018-11-27T04:46:18.868Z,33.43
2018-11-27T04:48:46.876Z,32.73
2018-11-27T04:51:15.167Z,32.97
2018-11-27T04:53:43.221Z,31.40
2018-11-27T04:56:11.270Z,32.77
2018-11-27T04:58:39.383Z,36.43
2018-11-27T05:01:07.493Z,32.17
2018-11-27T05:03:35.560Z,32.57
2018-11-27T05:06:03.625Z,34.40
2018-11-27T05:08:31.709Z,33.60
2018-11-27T05:11:05.521Z,33.83
2018-11-27T05:13:37.615Z,35.93
2018-11-27T05:16:09.939Z,38.13
2018-11-27T05:18:40.496Z,35.67
2018-11-27T05:21:15.183Z,37.53
2018-11-27T05:23:47.689Z,35.80
2018-11-27T05:26:21.965Z,34.27
2018-11-27T05:28:54.012Z,37.00
2018-11-27T05:31:25.437Z,39.20
2018-11-27T05:33:56.927Z,40.77
2018-11-27T05:36:27.780Z,39.57
2018-11-27T05:38:57.290Z,38.97
2018-11-27T05:41:41.376Z,40.93
2018-11-27T05:44:11.938Z,33.27
2018-11-27T05:46:44.453Z,38.20
2018-11-27T05:49:17.655Z,35.90
2018-11-27T05:51:51.055Z,34.60
2018-11-27T05:54:24.862Z,39.80
2018-11-27T05:56:57.157Z,34.90
2018-11-27T05:59:29.527Z,37.70
2018-11-27T06:02:00.849Z,39.07
2018-11-27T06:04:31.895Z,38.30
2018-11-27T06:07:04.232Z,38.03
2018-11-27T06:09:37.049Z,36.27
2018-11-27T06:12:10.607Z,43.00
2018-11-27T06:14:47.942Z,40.20
2018-11-27T06:17:21.470Z,40.87
2018-11-27T06:20:00.179Z,35.87
2018-11-27T06:25:20.671Z,35.13
2018-11-27T06:27:56.541Z,35.23
2018-11-27T06:30:35.568Z,40.20
2018-11-27T06:33:13.738Z,35.63
2018-11-27T06:35:47.854Z,36.87
2018-11-27T06:38:22.675Z,36.73
2018-11-27T06:40:57.451Z,36.27
2018-11-27T06:43:32.765Z,37.20
2018-11-27T06:46:08.555Z,46.23
2018-11-27T06:48:36.871Z,38.53
2018-11-27T06:51:04.948Z,41.13
2018-11-27T06:53:33.124Z,36.33
2018-11-27T06:56:01.167Z,43.83
2018-11-27T06:58:29.300Z,37.80
2018-11-27T07:00:57.351Z,38.97
2018-11-27T07:03:25.500Z,37.27
2018-11-27T07:05:53.582Z,37.27
2018-11-27T07:08:21.882Z,36.43
2018-11-27T07:10:49.976Z,34.70
2018-11-27T07:13:19.797Z,36.77
2018-11-27T07:15:50.251Z,37.23
2018-11-27T07:18:18.259Z,39.87
2018-11-27T07:20:46.274Z,39.30
2018-11-27T07:23:14.285Z,36.00
2018-11-27T07:25:42.274Z,33.73
2018-11-27T07:28:10.369Z,35.17
2018-11-27T07:30:39.192Z,35.13
2018-11-27T07:33:07.227Z,36.63
2018-11-27T07:35:35.594Z,35.30
2018-11-27T07:38:27.088Z,37.33
2018-11-27T07:41:14.459Z,33.37
2018-11-27T07:46:50.831Z,33.67
2018-11-27T07:49:24.528Z,34.13
2018-11-27T07:58:48.069Z,32.57
2018-11-27T08:01:16.136Z,35.07
2018-11-27T08:03:44.161Z,37.63
2018-11-27T08:06:12.160Z,31.33
2018-11-27T08:08:40.348Z,34.67
2018-11-27T08:11:08.402Z,35.93
2018-11-27T08:13:37.049Z,32.03
2018-11-27T08:16:05.619Z,32.93
2018-11-27T08:18:33.765Z,30.07
2018-11-27T08:21:02.889Z,42.23
2018-11-27T08:23:30.903Z,33.77
2018-11-27T08:25:59.237Z,34.00
2018-11-27T08:28:27.318Z,33.80
2018-11-27T08:30:55.330Z,30.93
2018-11-27T08:33:23.659Z,33.43
2018-11-27T08:35:51.665Z,33.13
2018-11-27T08:38:19.757Z,40.40
2018-11-27T08:40:47.799Z,33.47
2018-11-27T08:43:15.837Z,36.17
2018-11-27T08:45:43.884Z,31.87
2018-11-27T08:48:11.908Z,30.87
2018-11-27T08:50:39.947Z,32.23
2018-11-27T08:53:08.012Z,33.30
2018-11-27T08:55:39.709Z,32.67
2018-11-27T08:58:11.862Z,37.67
2018-11-27T09:00:39.884Z,35.97
2018-11-27T09:03:07.900Z,30.63
2018-11-27T09:05:36.145Z,31.50
2018-11-27T09:08:04.362Z,30.43
2018-11-27T09:10:32.477Z,34.20
2018-11-27T09:13:00.974Z,39.27
2018-11-27T09:15:28.889Z,33.73
2018-11-27T09:17:57.913Z,31.80
2018-11-27T09:20:27.059Z,33.07
2018-11-27T09:22:55.236Z,34.83
2018-11-27T09:25:23.276Z,33.40
2018-11-27T09:27:51.452Z,32.73
2018-11-27T09:30:24.107Z,34.97
2018-11-27T09:32:52.539Z,33.63
2018-11-27T09:35:20.650Z,40.03
2018-11-27T09:37:48.823Z,35.57
2018-11-27T09:40:17.889Z,34.43
2018-11-27T09:42:46.117Z,35.37
2018-11-27T09:45:19.522Z,33.17
2018-11-27T09:47:52.308Z,32.17
2018-11-27T09:50:20.341Z,34.47
2018-11-27T09:52:48.379Z,33.10
2018-11-27T09:55:25.667Z,34.60
2018-11-27T09:58:03.083Z,33.60
2018-11-27T10:00:31.972Z,34.97
2018-11-27T10:03:01.692Z,33.67
2018-11-27T10:05:29.749Z,33.07
2018-11-27T10:07:57.797Z,32.90
2018-11-27T10:10:26.318Z,33.57
2018-11-27T10:12:54.347Z,32.70
2018-11-27T10:15:24.900Z,32.83
2018-11-27T10:17:53.949Z,31.70
2018-11-27T10:20:22.713Z,39.60
2018-11-27T10:22:50.760Z,32.00
2018-11-27T10:25:18.780Z,31.17
2018-11-27T10:27:46.861Z,37.97
2018-11-27T10:30:16.422Z,31.20
2018-11-27T10:32:44.608Z,38.30
2018-11-27T10:35:13.877Z,35.93
2018-11-27T10:37:41.914Z,30.33
2018-11-27T10:40:10.135Z,32.70
2018-11-27T10:42:38.402Z,32.37
2018-11-27T10:45:08.433Z,34.87
2018-11-27T10:47:36.699Z,34.33
2018-11-27T10:50:06.386Z,26.43
2018-11-27T10:52:34.569Z,27.87
2018-11-27T10:55:02.831Z,28.60
2018-11-27T10:57:31.074Z,27.57
2018-11-27T10:59:59.416Z,29.43
2018-11-27T11:02:33.801Z,27.10
2018-11-27T11:05:02.615Z,28.43
2018-11-27T11:07:30.887Z,25.33
2018-11-27T11:09:59.103Z,24.37
2018-11-27T11:12:27.337Z,25.20
2018-11-27T11:15:09.309Z,47.30
2018-11-27T11:17:37.703Z,30.33
2018-11-27T11:20:06.321Z,29.30
2018-11-27T11:22:34.585Z,30.50
2018-11-27T11:25:02.837Z,27.10
2018-11-27T11:27:31.011Z,25.90
2018-11-27T11:29:59.438Z,23.87
2018-11-27T11:32:27.687Z,27.63
2018-11-27T11:34:55.942Z,30.80
2018-11-27T11:37:24.092Z,24.33
2018-11-27T11:39:52.316Z,26.73
2018-11-27T11:42:20.647Z,26.30
2018-11-27T11:44:48.891Z,28.77
2018-11-27T11:47:17.116Z,25.60
2018-11-27T11:49:45.403Z,31.13
2018-11-27T11:52:13.633Z,25.77
2018-11-27T11:54:41.900Z,25.50
2018-11-27T11:57:10.109Z,24.73
2018-11-27T11:59:38.330Z,24.63
2018-11-27T12:02:06.618Z,19.60
2018-11-27T12:04:34.954Z,21.40
2018-11-27T12:07:03.162Z,21.33
2018-11-27T12:09:31.611Z,22.47
2018-11-27T12:11:59.855Z,20.80
2018-11-27T12:14:28.090Z,34.20
2018-11-27T12:16:56.354Z,21.00
2018-11-27T12:19:24.723Z,22.50
2018-11-27T12:21:52.951Z,22.97
2018-11-27T12:24:21.147Z,21.23
2018-11-27T12:26:49.546Z,23.03
2018-11-27T12:29:18.009Z,22.77
2018-11-27T12:31:46.318Z,22.97
2018-11-27T12:34:14.642Z,22.07
2018-11-27T12:36:42.894Z,21.13
2018-11-27T12:39:11.112Z,20.20
2018-11-27T12:41:39.311Z,21.57
2018-11-27T12:44:07.558Z,21.63
2018-11-27T12:46:35.896Z,22.87
2018-11-27T12:49:04.251Z,23.77
2018-11-27T12:51:32.461Z,20.83
2018-11-27T12:54:00.765Z,22.00
2018-11-27T12:56:29.161Z,21.07
2018-11-27T12:58:57.698Z,18.57
2018-11-27T13:01:32.752Z,20.57
2018-11-27T13:04:01.018Z,18.77
2018-11-27T13:06:29.353Z,19.30
2018-11-27T13:08:57.669Z,18.80
2018-11-27T13:11:26.038Z,19.33
2018-11-27T13:13:55.305Z,18.67
2018-11-27T13:16:23.533Z,19.73
2018-11-27T13:18:51.799Z,20.47
2018-11-27T13:21:20.067Z,19.57
2018-11-27T13:23:48.241Z,20.83
2018-11-27T13:26:16.595Z,18.73
2018-11-27T13:28:44.921Z,21.13
2018-11-27T13:31:13.136Z,20.37
2018-11-27T13:33:44.872Z,17.30
2018-11-27T13:36:13.581Z,15.60
2018-11-27T13:38:41.839Z,18.13
2018-11-27T13:41:10.069Z,27.00
2018-11-27T13:43:38.244Z,28.37
2018-11-27T13:46:08.412Z,16.70
2018-11-27T13:48:36.848Z,20.00
2018-11-27T13:51:05.869Z,25.83
2018-11-27T13:53:34.298Z,21.80
2018-11-27T13:56:02.443Z,29.57
2018-11-27T13:58:30.668Z,17.83
2018-11-27T14:00:58.959Z,15.63
2018-11-27T14:03:27.234Z,17.50
2018-11-27T14:05:55.697Z,15.87
2018-11-27T14:08:24.021Z,17.47
2018-11-27T14:10:52.266Z,16.37
2018-11-27T14:13:20.593Z,19.87
2018-11-27T14:15:48.841Z,17.60
2018-11-27T14:18:17.202Z,17.00
2018-11-27T14:20:46.130Z,17.83
2018-11-27T14:23:14.078Z,30.17
2018-11-27T14:25:42.451Z,17.43
2018-11-27T14:28:10.814Z,18.47
2018-11-27T14:30:39.208Z,15.90
2018-11-27T14:33:07.546Z,16.90
2018-11-27T14:35:35.895Z,17.20
2018-11-27T14:38:04.839Z,18.47
2018-11-27T14:40:33.034Z,17.00
2018-11-27T14:43:02.486Z,18.37
2018-11-27T14:45:30.771Z,21.60
2018-11-27T14:47:59.250Z,19.53
2018-11-27T14:50:27.466Z,20.17
2018-11-27T14:52:55.718Z,21.17
2018-11-27T14:55:28.169Z,19.20
2018-11-27T14:57:56.448Z,23.40
2018-11-27T15:00:25.976Z,18.93
2018-11-27T15:02:54.341Z,19.83
2018-11-27T15:05:30.127Z,19.83
2018-11-27T15:07:58.507Z,25.43
2018-11-27T15:10:26.939Z,20.20
2018-11-27T15:12:55.266Z,20.63
2018-11-27T15:15:23.510Z,25.43
2018-11-27T15:17:51.805Z,21.23
2018-11-27T15:20:20.914Z,23.50
2018-11-27T15:22:50.130Z,25.70
2018-11-27T15:25:20.892Z,21.63
2018-11-27T15:27:50.182Z,24.80
2018-11-27T15:30:21.303Z,22.60
2018-11-27T15:32:49.878Z,31.00
2018-11-27T15:35:18.148Z,21.97
2018-11-27T15:37:46.340Z,22.97
2018-11-27T15:40:15.172Z,25.23
2018-11-27T15:42:43.666Z,22.67
2018-11-27T15:45:16.497Z,24.63
2018-11-27T15:47:44.701Z,24.23
2018-11-27T15:50:13.057Z,19.80
2018-11-27T15:52:41.279Z,25.60
2018-11-27T15:55:10.507Z,24.77
2018-11-27T15:57:38.999Z,25.33
2018-11-27T16:00:14.334Z,29.80
2018-11-27T16:02:42.678Z,27.70
2018-11-27T16:05:11.179Z,28.93
2018-11-27T16:07:39.424Z,33.23
2018-11-27T16:10:15.182Z,30.83
2018-11-27T16:12:43.571Z,28.20
2018-11-27T16:15:13.313Z,29.60
2018-11-27T16:17:41.695Z,29.80
2018-11-27T16:20:12.358Z,29.80
2018-11-27T16:22:40.949Z,33.70
2018-11-27T16:25:10.893Z,30.37
2018-11-27T16:27:41.289Z,31.33
2018-11-27T16:30:10.480Z,30.23
2018-11-27T16:32:38.685Z,28.47
2018-11-27T16:35:06.724Z,32.43
2018-11-27T16:37:34.716Z,32.60
2018-11-27T16:40:02.754Z,30.30
2018-11-27T16:42:31.193Z,35.60
2018-11-27T16:44:59.222Z,34.13
2018-11-27T16:47:27.201Z,37.47
2018-11-27T16:49:55.308Z,38.87
2018-11-27T16:52:23.326Z,34.73
2018-11-27T16:54:51.294Z,33.47
2018-11-27T16:57:19.285Z,33.83
2018-11-27T16:59:47.260Z,35.83
2018-11-27T17:02:15.269Z,37.07
2018-11-27T17:04:43.261Z,38.37
2018-11-27T17:07:11.251Z,34.20
2018-11-27T17:09:39.580Z,35.23
2018-11-27T17:12:07.581Z,34.60
2018-11-27T17:14:35.685Z,34.77
2018-11-27T17:17:03.705Z,35.10
2018-11-27T17:19:31.757Z,38.10
2018-11-27T17:21:59.716Z,36.03
2018-11-27T17:24:27.805Z,38.03
2018-11-27T17:26:55.822Z,45.03
2018-11-27T17:29:23.843Z,38.33
2018-11-27T17:31:51.835Z,35.50
2018-11-27T17:34:19.844Z,35.67
2018-11-27T17:36:47.828Z,31.53
2018-11-27T17:39:15.835Z,33.60
2018-11-27T17:41:43.820Z,30.47
2018-11-27T17:44:13.738Z,32.50
2018-11-27T17:46:41.828Z,34.93
2018-11-27T17:49:10.941Z,31.87
2018-11-27T17:51:38.981Z,35.47
2018-11-27T17:54:07.058Z,30.37
2018-11-27T17:56:35.061Z,33.30
2018-11-27T17:59:03.071Z,34.10
2018-11-27T18:01:31.063Z,31.47
2018-11-27T18:03:59.089Z,33.43
2018-11-27T18:06:27.076Z,38.20
2018-11-27T18:08:55.064Z,35.13
2018-11-27T18:11:23.069Z,34.17
2018-11-27T18:13:51.195Z,32.87
2018-11-27T18:16:19.256Z,38.70
2018-11-27T18:18:47.301Z,36.17
2018-11-27T18:21:16.533Z,43.97
2018-11-27T18:23:44.644Z,41.70
2018-11-27T18:26:12.661Z,41.30
2018-11-27T18:28:40.708Z,37.30
2018-11-27T18:31:08.828Z,33.70
2018-11-27T18:33:37.062Z,31.93
2018-11-27T18:36:05.159Z,32.23
2018-11-27T18:38:33.194Z,29.37
2018-11-27T18:41:01.406Z,32.77
2018-11-27T18:43:29.592Z,35.40
2018-11-27T18:45:58.094Z,35.20
2018-11-27T18:48:28.769Z,35.37
2018-11-27T18:50:56.949Z,36.60
2018-11-27T18:53:25.062Z,33.03
2018-11-27T18:55:53.554Z,36.70
2018-11-27T18:58:21.631Z,36.40
2018-11-27T19:00:49.664Z,34.43
2018-11-27T19:03:17.706Z,37.87
2018-11-27T19:05:45.772Z,33.07
2018-11-27T19:08:13.805Z,35.70
2018-11-27T19:10:41.867Z,33.90
2018-11-27T19:13:09.932Z,39.63
2018-11-27T19:15:41.711Z,39.23
2018-11-27T19:18:12.952Z,49.40
2018-11-27T19:20:41.124Z,40.20
2018-11-27T19:23:09.289Z,48.83
2018-11-27T19:25:37.469Z,42.20
2018-11-27T19:28:06.231Z,42.87
2018-11-27T19:30:34.901Z,40.10
2018-11-27T19:33:02.940Z,35.80
2018-11-27T19:35:31.114Z,37.50
2018-11-27T19:37:59.178Z,39.63
2018-11-27T19:40:27.272Z,42.83
2018-11-27T19:42:55.335Z,45.87
2018-11-27T19:45:24.464Z,43.03
2018-11-27T19:47:52.666Z,44.87
2018-11-27T19:50:20.710Z,42.27
2018-11-27T19:52:49.411Z,43.77
2018-11-27T19:55:17.886Z,46.67
2018-11-27T19:57:46.189Z,43.30
2018-11-27T20:00:18.350Z,40.07
2018-11-27T20:02:46.454Z,42.80
2018-11-27T20:05:15.221Z,36.20
2018-11-27T20:07:43.401Z,35.10
2018-11-27T20:10:12.006Z,35.97
2018-11-27T20:12:40.361Z,37.03
2018-11-27T20:15:12.211Z,38.23
2018-11-27T20:17:40.276Z,34.33
2018-11-27T20:20:09.088Z,37.17
2018-11-27T20:22:37.144Z,33.03
2018-11-27T20:25:05.953Z,37.87
2018-11-27T20:27:34.047Z,36.20
2018-11-27T20:30:02.662Z,34.83
2018-11-27T20:32:33.934Z,34.53
2018-11-27T20:34:59.004Z,40.87
2018-11-27T20:37:27.164Z,35.30
2018-11-27T20:39:55.345Z,31.03
2018-11-27T20:42:23.567Z,28.73
2018-11-27T20:44:51.693Z,33.63
2018-11-27T20:47:19.802Z,32.20
2018-11-27T20:49:48.074Z,29.37
2018-11-27T20:52:16.280Z,32.53
2018-11-27T20:54:44.599Z,36.47
2018-11-27T20:57:12.888Z,33.07
2018-11-27T20:59:41.105Z,32.43
2018-11-27T21:02:09.463Z,29.77
2018-11-27T21:04:38.006Z,27.03
2018-11-27T21:07:06.642Z,32.30
2018-11-27T21:09:34.967Z,31.23
2018-11-27T21:12:03.292Z,34.20
2018-11-27T21:14:31.565Z,31.10
2018-11-27T21:16:59.862Z,29.73
2018-11-27T21:19:28.456Z,30.90
2018-11-27T21:21:56.715Z,32.17
2018-11-27T21:24:25.032Z,29.63
2018-11-27T21:26:53.302Z,30.13
2018-11-27T21:29:21.597Z,29.43
2018-11-27T21:31:49.813Z,28.67
2018-11-27T21:34:18.456Z,28.57
2018-11-27T21:36:46.731Z,33.00
2018-11-27T21:39:15.119Z,31.23
2018-11-27T21:41:43.445Z,30.30
2018-11-27T21:44:11.814Z,34.00
2018-11-27T21:46:39.969Z,28.70
2018-11-27T21:49:08.311Z,27.30
2018-11-27T21:51:36.594Z,29.13
2018-11-27T21:54:04.836Z,30.93
2018-11-27T21:56:33.342Z,28.13
2018-11-27T21:59:01.586Z,29.03
2018-11-27T22:01:29.962Z,29.10
2018-11-27T22:03:58.179Z,25.63
2018-11-27T22:06:26.447Z,28.47
2018-11-27T22:08:54.847Z,27.40
2018-11-27T22:11:23.037Z,28.67
2018-11-27T22:13:51.359Z,28.37
2018-11-27T22:16:19.515Z,27.87
2018-11-27T22:18:47.837Z,29.07
2018-11-27T22:21:16.129Z,27.50
2018-11-27T22:23:44.614Z,29.67
2018-11-27T22:26:12.887Z,29.93
2018-11-27T22:28:41.069Z,28.90
2018-11-27T22:31:09.284Z,31.00
2018-11-27T22:33:37.539Z,30.67
2018-11-27T22:36:05.762Z,29.93
2018-11-27T22:38:34.267Z,27.13
2018-11-27T22:41:03.424Z,30.73
2018-11-27T22:43:31.462Z,31.83
2018-11-27T22:45:59.558Z,28.83
2018-11-27T22:48:35.462Z,33.33
2018-11-27T22:51:03.599Z,28.13
2018-11-27T22:53:31.659Z,26.40
2018-11-27T22:56:00.325Z,26.73
2018-11-27T22:58:27.795Z,25.97
2018-11-27T23:00:55.936Z,30.57
2018-11-27T23:03:27.525Z,40.03
2018-11-27T23:05:55.619Z,49.73
2018-11-27T23:08:23.703Z,27.70
2018-11-27T23:10:51.763Z,25.77
2018-11-27T23:13:19.788Z,29.23
2018-11-27T23:15:48.183Z,26.50
2018-11-27T23:18:18.322Z,27.53
2018-11-27T23:20:46.363Z,28.30
2018-11-27T23:23:22.230Z,29.03
2018-11-27T23:25:50.222Z,29.17
2018-11-27T23:28:18.331Z,25.90
2018-11-27T23:30:46.329Z,25.97
2018-11-27T23:33:14.385Z,26.50
2018-11-27T23:35:42.444Z,23.83
2018-11-27T23:38:10.501Z,26.17
2018-11-27T23:40:38.620Z,24.93
2018-11-27T23:43:06.741Z,23.97
2018-11-27T23:45:34.871Z,23.20
2018-11-27T23:48:02.926Z,24.50
2018-11-27T23:50:31.061Z,28.53
2018-11-27T23:53:02.801Z,29.57
2018-11-27T23:55:30.855Z,29.63
2018-11-27T23:57:58.909Z,30.20
